Time;durP1;ratioP1;P1;durP2;ratioP2;P2;SDS_P1;SDS_P2;PMS_P1;PMS_P2;Temp;Humidity;BMP_temperature;BMP_pressure;BME280_temperature;BME280_humidity;BME280_pressure;Samples;Min_cycle;Max_cycle;Signal;HPM_P1;HPM_P2
2023/04/30 00:02:15;;;;;;;22.73;16.90;;;12.70;99.90;;;12.63;72.66;102229.63;5116806;28;20108;-70
2023/04/30 00:04:44;;;;;;;22.02;16.17;;;12.40;99.90;;;12.29;75.22;102227.53;5116443;28;20035;-71
2023/04/30 00:07:13;;;;;;;21.83;16.70;;;12.00;99.90;;;12.30;75.31;102229.28;5117003;28;20040;-71
2023/04/30 00:09:42;;;;;;;26.38;17.23;;;11.90;99.90;;;12.18;75.27;102224.75;5116446;28;20050;-70
2023/04/30 00:12:11;;;;;;;27.03;16.33;;;11.80;99.90;;;11.79;76.86;102222.53;5116477;28;20051;-71
2023/04/30 00:14:39;;;;;;;20.80;15.82;;;11.40;99.90;;;11.58;77.00;102224.88;5116310;28;20151;-70
2023/04/30 00:17:07;;;;;;;22.00;16.80;;;11.20;99.90;;;11.62;76.85;102215.19;5094778;28;20412;-71
2023/04/30 00:19:36;;;;;;;24.52;17.08;;;11.10;99.90;;;11.47;78.26;102222.94;5112156;28;20051;-70
2023/04/30 00:22:05;;;;;;;26.55;17.13;;;11.00;99.90;;;11.69;78.42;102228.59;5112401;28;20086;-70
2023/04/30 00:24:33;;;;;;;27.70;18.20;;;11.20;99.90;;;11.28;79.96;102219.16;5116049;28;20043;-72
2023/04/30 00:27:03;;;;;;;25.88;17.15;;;11.00;99.90;;;11.27;80.66;102222.66;5089848;28;20052;-71
2023/04/30 00:29:31;;;;;;;23.73;16.90;;;10.90;99.90;;;11.51;80.52;102224.78;5098068;28;20048;-70
2023/04/30 00:32:00;;;;;;;20.88;17.30;;;11.00;99.90;;;11.73;79.73;102229.50;5090038;28;20043;-71
2023/04/30 00:34:28;;;;;;;26.95;18.38;;;11.30;99.90;;;11.78;79.63;102226.06;5115996;28;20496;-70
2023/04/30 00:36:56;;;;;;;25.85;18.48;;;11.40;99.90;;;11.65;79.82;102225.84;5116096;28;20126;-70
2023/04/30 00:39:25;;;;;;;29.35;19.33;;;11.40;99.90;;;11.68;79.79;102231.22;5097630;28;20591;-71
2023/04/30 00:41:53;;;;;;;25.77;18.05;;;11.40;99.90;;;11.77;79.83;102231.31;5115963;28;20143;-70
2023/04/30 00:44:23;;;;;;;28.08;18.85;;;11.40;99.90;;;11.98;79.25;102222.75;5090194;28;20516;-71
2023/04/30 00:46:52;;;;;;;23.88;18.88;;;11.60;99.90;;;11.96;78.52;102235.13;5077916;28;20048;-71
2023/04/30 00:49:20;;;;;;;27.42;18.90;;;11.60;99.90;;;12.01;78.15;102230.75;5115927;28;20042;-70
2023/04/30 00:51:49;;;;;;;27.08;19.23;;;11.70;99.90;;;12.13;78.02;102231.78;5115555;28;20134;-69
2023/04/30 00:54:20;;;;;;;26.50;18.85;;;11.80;99.90;;;12.19;77.72;102229.19;5097379;28;20058;-70
2023/04/30 00:56:48;;;;;;;26.20;18.55;;;11.90;99.90;;;12.30;77.73;102231.94;5115691;28;20068;-70
2023/04/30 00:59:17;;;;;;;27.10;18.40;;;12.00;99.90;;;12.37;77.52;102231.13;5097114;28;20035;-70
2023/04/30 01:01:47;;;;;;;25.52;18.25;;;12.00;99.90;;;12.44;77.10;102233.88;5115262;28;20496;-72
2023/04/30 01:04:16;;;;;;;25.63;18.48;;;12.10;99.90;;;12.48;76.74;102232.16;5115542;28;20076;-72
2023/04/30 01:06:45;;;;;;;27.50;20.02;;;12.20;99.90;;;12.55;76.41;102233.97;5090309;28;20118;-70
2023/04/30 01:09:14;;;;;;;26.33;19.27;;;12.20;99.90;;;12.57;76.33;102229.56;5115046;28;20067;-70
2023/04/30 01:11:57;;;;;;;26.20;18.88;;;12.30;99.90;;;12.61;76.25;102236.69;5115415;28;20051;-71
2023/04/30 01:14:38;;;;;;;27.42;18.33;;;12.30;99.90;;;12.61;75.93;102242.00;5085348;28;20071;-70
2023/04/30 01:17:18;;;;;;;32.35;20.25;;;12.30;99.90;;;12.57;75.81;102242.84;5113029;28;20534;-70
2023/04/30 01:19:46;;;;;;;28.40;19.40;;;12.30;99.90;;;12.55;75.80;102239.28;5115483;28;20035;-70
2023/04/30 01:22:32;;;;;;;25.25;19.08;;;12.20;99.90;;;12.61;75.92;102252.63;5114908;28;20485;-70
2023/04/30 01:25:25;;;;;;;30.55;19.50;;;12.30;99.90;;;12.58;76.15;102242.84;5079612;28;20068;-71
2023/04/30 01:28:07;;;;;;;26.85;19.35;;;12.20;99.90;;;12.57;76.14;102246.38;5079141;28;20041;-71
2023/04/30 01:30:36;;;;;;;26.50;19.17;;;12.30;99.90;;;12.58;76.01;102242.84;5090896;28;20097;-70
2023/04/30 01:33:05;;;;;;;31.10;20.50;;;12.30;99.90;;;12.59;76.20;102254.38;5096749;28;20038;-70
2023/04/30 01:36:21;;;;;;;26.95;19.35;;;12.30;99.90;;;12.60;75.96;102245.53;5096642;28;20400;-70
2023/04/30 01:39:09;;;;;;;28.42;19.50;;;12.30;99.90;;;12.61;75.85;102248.19;5104369;28;20120;-71
2023/04/30 01:41:52;;;;;;;27.00;20.00;;;12.30;99.90;;;12.63;76.23;102245.56;5092867;28;20044;-70
2023/04/30 01:44:43;;;;;;;28.88;20.40;;;12.30;99.90;;;12.61;76.16;102242.91;5112952;28;20122;-71
2023/04/30 01:47:30;;;;;;;32.22;20.83;;;12.30;99.90;;;12.62;76.09;102244.66;5092272;28;20044;-70
2023/04/30 01:50:11;;;;;;;29.52;21.42;;;12.30;99.90;;;12.64;76.52;102247.31;5111264;28;20048;-70
2023/04/30 01:52:44;;;;;;;34.17;21.73;;;12.30;99.90;;;12.67;76.44;102244.72;5114801;28;20120;-70
2023/04/30 01:55:18;;;;;;;29.38;21.90;;;12.30;99.90;;;12.55;76.25;102232.22;5096341;28;20130;-71
2023/04/30 01:57:57;;;;;;;29.58;21.13;;;12.40;99.90;;;12.49;76.59;102236.56;5111547;28;20118;-70
2023/04/30 02:00:30;;;;;;;30.52;21.77;;;12.30;99.90;;;12.43;76.93;102241.81;5096453;28;20384;-70
2023/04/30 02:02:59;;;;;;;30.80;22.25;;;12.20;99.90;;;12.41;77.40;102238.25;5084691;28;20139;-70
2023/04/30 02:05:27;;;;;;;33.88;21.50;;;12.10;99.90;;;12.18;78.03;102234.47;5114813;28;20491;-71
2023/04/30 02:07:56;;;;;;;27.45;20.25;;;11.90;99.90;;;12.24;78.19;102223.91;5110861;28;20484;-70
2023/04/30 02:10:26;;;;;;;30.58;21.85;;;12.00;99.90;;;12.32;78.15;102233.75;5096372;28;20055;-70
2023/04/30 02:12:54;;;;;;;32.25;21.13;;;12.00;99.90;;;12.24;78.24;102237.19;5088406;28;20082;-70
2023/04/30 02:15:23;;;;;;;30.77;22.00;;;12.00;99.90;;;12.29;78.29;102227.53;5096224;28;20474;-70
2023/04/30 02:17:53;;;;;;;29.45;20.67;;;12.00;99.90;;;12.26;78.28;102228.38;5095972;28;20564;-70
2023/04/30 02:20:21;;;;;;;30.08;20.95;;;12.00;99.90;;;12.22;78.56;102233.63;5095933;28;20104;-70
2023/04/30 02:22:50;;;;;;;29.17;21.27;;;12.00;99.90;;;12.24;78.42;102235.44;5094763;28;20036;-70
2023/04/30 02:25:18;;;;;;;30.40;21.23;;;12.00;99.90;;;12.22;78.49;102234.53;5113684;28;20043;-70
2023/04/30 02:27:49;;;;;;;32.13;21.45;;;12.00;99.90;;;12.22;78.63;102225.66;5114016;28;20035;-70
2023/04/30 02:30:18;;;;;;;31.90;21.50;;;11.90;99.90;;;12.27;78.74;102231.94;5110468;28;20039;-70
2023/04/30 02:32:47;;;;;;;32.08;22.05;;;11.90;99.90;;;12.19;78.50;102225.66;5095758;28;20039;-71
2023/04/30 02:35:17;;;;;;;28.50;22.88;;;12.00;99.90;;;11.84;79.29;102216.41;5087390;28;20043;-70
2023/04/30 02:37:46;;;;;;;30.08;22.15;;;11.70;99.90;;;11.89;79.57;102215.56;5095510;28;20142;-70
2023/04/30 02:40:15;;;;;;;34.70;23.52;;;11.70;99.90;;;11.93;79.71;102227.09;5086986;28;20051;-71
2023/04/30 02:42:43;;;;;;;33.47;22.70;;;11.60;99.90;;;11.61;80.42;102214.31;5113413;28;20446;-70
2023/04/30 02:45:11;;;;;;;35.45;23.30;;;11.50;99.90;;;11.31;81.93;102224.50;5113624;28;20067;-70
2023/04/30 02:47:40;;;;;;;37.00;22.65;;;11.10;99.90;;;11.09;83.12;102235.63;5113651;28;20086;-70
2023/04/30 02:50:10;;;;;;;32.40;22.25;;;10.80;99.90;;;10.94;84.31;102222.16;5113251;28;20123;-70
2023/04/30 02:52:39;;;;;;;32.25;23.23;;;10.60;99.90;;;11.02;85.02;102225.81;5109741;28;20082;-70
2023/04/30 02:55:09;;;;;;;33.00;24.50;;;10.70;99.90;;;10.78;85.52;102225.44;5113750;28;20397;-70
2023/04/30 02:57:37;;;;;;;39.72;24.67;;;10.50;99.90;;;10.72;86.50;102217.41;5113434;28;20292;-70
2023/04/30 03:00:07;;;;;;;33.67;24.55;;;10.40;99.90;;;10.73;86.71;102211.22;5113531;28;20090;-70
2023/04/30 03:02:36;;;;;;;;;;;10.40;99.90;;;10.77;86.75;102223.66;5095266;28;20500;-71
2023/04/30 03:05:06;;;;;;;37.75;26.80;;;10.50;99.90;;;10.83;86.91;102219.34;5094973;28;20014;-70
2023/04/30 03:07:34;;;;;;;37.80;25.77;;;10.50;99.90;;;10.86;86.84;102227.34;5083249;28;20113;-70
2023/04/30 03:10:05;;;;;;;34.38;26.25;;;10.60;99.90;;;11.04;86.45;102229.38;5095004;28;20050;-71
2023/04/30 03:12:34;;;;;;;39.28;25.15;;;10.70;99.90;;;11.15;86.07;102238.38;5113405;28;20055;-70
2023/04/30 03:15:03;;;;;;;39.58;25.73;;;10.80;99.90;;;11.25;85.73;102239.41;5112815;28;20081;-71
2023/04/30 03:17:31;;;;;;;38.65;25.52;;;10.90;99.90;;;11.35;85.11;102242.22;5113225;28;20050;-71
2023/04/30 03:20:00;;;;;;;36.08;26.10;;;11.00;99.90;;;11.23;84.63;102207.59;5094646;28;20044;-70
2023/04/30 03:22:28;;;;;;;34.70;24.70;;;11.10;99.90;;;11.39;84.40;102232.53;5113143;28;20043;-70
2023/04/30 03:24:57;;;;;;;35.25;26.67;;;11.10;99.90;;;11.29;84.58;102236.81;5112675;28;20040;-70
2023/04/30 03:27:26;;;;;;;37.03;26.02;;;11.10;99.90;;;11.30;84.59;102235.09;5112712;28;20071;-70
2023/04/30 03:29:55;;;;;;;37.13;26.97;;;11.00;99.90;;;11.40;84.31;102242.28;5091201;28;20064;-70
2023/04/30 03:32:24;;;;;;;36.72;25.52;;;11.10;99.90;;;11.32;84.24;102214.81;5086801;28;20056;-71
2023/04/30 03:34:52;;;;;;;37.35;25.77;;;11.20;99.90;;;11.47;83.75;102233.56;5112909;28;20043;-70
2023/04/30 03:37:21;;;;;;;39.40;25.80;;;11.20;99.90;;;11.53;83.55;102231.88;5112556;28;20484;-70
2023/04/30 03:39:49;;;;;;;35.70;25.92;;;11.20;99.90;;;11.41;83.57;102215.81;5094467;28;20036;-71
2023/04/30 03:42:17;;;;;;;36.83;26.20;;;11.20;99.90;;;11.53;83.47;102233.63;5112771;28;20423;-70
2023/04/30 03:44:47;;;;;;;40.47;26.90;;;11.20;99.90;;;11.58;83.13;102230.19;5112728;28;20063;-70
2023/04/30 03:47:16;;;;;;;37.27;25.00;;;11.30;99.90;;;11.58;82.83;102230.19;5112712;28;20044;-70
2023/04/30 03:49:44;;;;;;;34.85;25.98;;;11.30;99.90;;;11.54;82.93;102238.06;5112365;28;20054;-70
2023/04/30 03:52:13;;;;;;;39.15;26.85;;;11.30;99.90;;;11.28;83.30;102223.56;5085920;28;20139;-70
2023/04/30 03:54:41;;;;;;;43.20;28.38;;;11.10;99.90;;;11.00;84.30;102226.66;5112768;28;20048;-70
2023/04/30 03:57:11;;;;;;;36.75;27.38;;;10.90;99.90;;;10.65;86.02;102218.16;5082186;28;20481;-70
2023/04/30 03:59:40;;;;;;;37.80;27.20;;;10.50;99.90;;;10.66;86.90;102219.94;5088252;28;20408;-70
2023/04/30 04:02:10;;;;;;;39.45;29.10;;;10.40;99.90;;;10.48;87.36;102211.69;5094288;28;20134;-70
2023/04/30 04:04:39;;;;;;;43.88;28.33;;;10.30;99.90;;;10.14;89.52;102206.66;5086064;28;20044;-70
2023/04/30 04:07:08;;;;;;;40.80;29.13;;;9.90;99.90;;;9.98;90.69;102208.06;5094626;28;20052;-70
2023/04/30 04:09:37;;;;;;;39.85;28.45;;;9.80;99.90;;;9.78;91.42;102210.31;5112650;28;20050;-70
2023/04/30 04:12:06;;;;;;;38.70;28.35;;;9.50;99.90;;;9.65;93.43;102210.94;5112498;28;20119;-70
2023/04/30 04:14:34;;;;;;;37.40;27.90;;;9.40;99.90;;;9.54;94.87;102209.81;5112181;28;20070;-70
2023/04/30 04:17:04;;;;;;;38.47;27.80;;;9.20;99.90;;;9.61;94.49;102217.00;5090827;28;20054;-71
2023/04/30 04:19:34;;;;;;;38.72;27.70;;;9.20;99.90;;;9.62;95.14;102213.50;5087534;28;20060;-71
2023/04/30 04:22:03;;;;;;;42.13;28.20;;;9.20;99.90;;;9.46;95.53;102208.78;5112341;28;20082;-70
2023/04/30 04:24:32;;;;;;;41.67;28.60;;;9.10;99.90;;;9.49;95.68;102222.03;5112519;28;20035;-70
2023/04/30 04:27:02;;;;;;;37.00;27.38;;;9.10;99.90;;;9.58;94.98;102224.84;5093734;28;20039;-70
2023/04/30 04:29:33;;;;;;;31.15;23.92;;;9.20;99.90;;;9.70;94.17;102219.84;5086079;28;20130;-70
2023/04/30 04:32:03;;;;;;;34.42;23.92;;;9.30;99.90;;;9.72;92.73;102218.13;5094088;28;20446;-70
2023/04/30 04:34:34;;;;;;;29.92;23.08;;;9.30;99.90;;;9.82;92.65;102216.56;5082178;28;20044;-70
2023/04/30 04:37:02;;;;;;;35.50;26.27;;;9.50;99.90;;;10.01;93.08;102216.94;5108978;28;20039;-70
2023/04/30 04:39:31;;;;;;;37.45;25.33;;;9.60;99.90;;;10.07;92.98;102216.19;5086130;28;20401;-70
2023/04/30 04:42:00;;;;;;;33.80;22.50;;;9.70;99.90;;;9.86;93.58;102219.31;5112077;28;20062;-70
2023/04/30 04:44:28;;;;;;;30.40;22.33;;;9.50;99.90;;;9.87;93.67;102221.06;5086077;28;20126;-70
2023/04/30 04:46:56;;;;;;;31.25;22.95;;;9.50;99.90;;;9.70;94.58;102226.88;5097597;28;20143;-70
2023/04/30 04:49:25;;;;;;;32.22;24.13;;;9.40;99.90;;;9.31;95.14;102165.31;5089876;28;20056;-70
2023/04/30 04:51:55;;;;;;;30.27;22.08;;;9.30;99.90;;;9.84;94.78;102228.94;5116552;28;20066;-70
2023/04/30 04:54:23;;;;;;;28.93;22.20;;;9.50;99.90;;;10.03;94.21;102231.09;5086566;28;20117;-70
2023/04/30 04:56:51;;;;;;;29.55;20.52;;;9.70;99.90;;;10.04;94.26;102227.56;5089637;28;20380;-71
2023/04/30 04:59:20;;;;;;;26.75;20.67;;;9.70;99.90;;;9.52;93.44;102115.56;5107871;28;20105;-71
2023/04/30 05:01:49;;;;;;;27.52;20.10;;;9.80;99.90;;;10.26;92.91;102238.63;5098072;28;20075;-70
2023/04/30 05:04:17;;;;;;;25.45;20.33;;;9.90;99.90;;;10.16;92.31;102239.31;5116260;28;20382;-70
2023/04/30 05:06:46;;;;;;;25.30;19.15;;;9.90;99.90;;;10.07;92.96;102232.03;5098203;28;20043;-70
2023/04/30 05:09:16;;;;;;;26.85;19.27;;;9.80;99.90;;;9.97;94.21;102241.53;5097576;28;20036;-70
2023/04/30 05:11:45;;;;;;;26.55;18.75;;;9.60;99.90;;;9.63;94.44;102239.06;5115775;28;20038;-70
2023/04/30 05:14:13;;;;;;;20.42;16.25;;;9.40;99.90;;;9.69;95.12;102236.56;5115345;28;20046;-70
2023/04/30 05:16:41;;;;;;;27.52;17.10;;;9.40;99.90;;;9.67;95.89;102235.63;5097151;28;20048;-70
2023/04/30 05:19:10;;;;;;;27.67;17.33;;;9.30;99.90;;;9.82;95.90;102235.06;5115302;28;20046;-70
2023/04/30 05:21:39;;;;;;;21.83;16.77;;;9.40;99.90;;;9.84;95.53;102233.34;5115182;28;20415;-71
2023/04/30 05:24:07;;;;;;;24.02;17.15;;;9.50;99.90;;;10.14;95.82;102241.03;5111436;28;20032;-70
2023/04/30 05:26:37;;;;;;;24.80;17.10;;;9.70;99.90;;;10.10;94.61;102233.91;5115179;28;20048;-70
2023/04/30 05:29:05;;;;;;;23.80;16.43;;;9.80;99.90;;;10.28;93.88;102232.47;5115132;28;20040;-70
2023/04/30 05:31:33;;;;;;;21.17;16.00;;;10.00;99.90;;;10.63;93.46;102230.47;5114841;28;20465;-70
2023/04/30 05:34:02;;;;;;;20.45;15.95;;;10.30;99.90;;;10.94;92.31;102237.19;5114894;28;20061;-69
2023/04/30 05:36:30;;;;;;;24.10;16.08;;;10.50;99.90;;;11.02;91.39;102236.41;5114902;28;20059;-70
2023/04/30 05:38:59;;;;;;;19.92;15.82;;;10.70;99.90;;;11.15;90.68;102242.81;5115118;28;20039;-70
2023/04/30 05:41:27;;;;;;;19.02;15.95;;;10.80;99.90;;;11.50;89.62;102245.06;5114693;28;20139;-70
2023/04/30 05:43:57;;;;;;;19.95;15.75;;;11.10;99.90;;;11.71;88.01;102256.00;5114603;28;20102;-70
2023/04/30 05:46:25;;;;;;;20.25;15.88;;;11.40;99.90;;;11.48;87.56;102251.22;5110620;28;20067;-71
2023/04/30 05:48:54;;;;;;;21.55;15.70;;;11.30;99.90;;;11.45;87.43;102246.78;5111355;28;20536;-70
2023/04/30 05:51:22;;;;;;;19.92;15.65;;;11.20;99.90;;;11.23;89.31;102242.03;5114613;28;20039;-70
2023/04/30 05:53:51;;;;;;;19.77;15.88;;;10.90;99.90;;;11.08;89.75;102252.41;5114725;28;20052;-71
2023/04/30 05:56:19;;;;;;;19.77;15.00;;;10.80;99.90;;;10.93;90.05;102245.97;5114451;28;20043;-70
2023/04/30 05:58:49;;;;;;;17.15;14.73;;;10.60;99.90;;;11.03;89.04;102254.09;5088168;28;20434;-70
2023/04/30 06:01:19;;;;;;;19.17;16.00;;;10.70;99.90;;;11.27;89.13;102248.25;5114571;28;20047;-70
2023/04/30 06:03:48;;;;;;;21.02;14.75;;;10.90;99.90;;;11.41;88.83;102252.91;5114697;28;20032;-70
2023/04/30 06:06:16;;;;;;;17.40;14.35;;;11.00;99.90;;;11.56;88.41;102261.06;5114376;28;20414;-70
2023/04/30 06:08:45;;;;;;;17.75;14.60;;;11.20;99.90;;;11.15;89.55;102243.66;5114197;28;20075;-70
2023/04/30 06:11:14;;;;;;;17.38;14.93;;;10.90;99.90;;;10.98;88.32;102244.28;5110202;28;20074;-70
2023/04/30 06:13:42;;;;;;;19.27;15.13;;;10.80;99.90;;;10.89;90.67;102240.63;5114429;28;20048;-70
2023/04/30 06:16:10;;;;;;;18.00;13.60;;;10.60;99.90;;;11.00;90.97;102246.09;5114398;28;20063;-70
2023/04/30 06:18:40;;;;;;;17.70;13.70;;;10.70;99.90;;;10.92;89.42;102242.41;5114130;28;20038;-70
2023/04/30 06:21:09;;;;;;;19.67;14.38;;;10.70;99.90;;;10.83;90.83;102245.81;5113900;28;20047;-70
2023/04/30 06:23:37;;;;;;;18.38;14.27;;;10.60;99.90;;;10.81;91.88;102242.25;5113772;28;20489;-70
2023/04/30 06:26:06;;;;;;;18.13;14.07;;;10.50;99.90;;;10.87;91.54;102241.47;5113774;28;20089;-70
2023/04/30 06:28:34;;;;;;;17.10;13.77;;;10.50;99.90;;;11.12;90.55;102248.03;5113786;28;20066;-70
2023/04/30 06:31:02;;;;;;;16.75;13.60;;;10.70;99.90;;;10.68;90.72;102234.09;5113611;28;20115;-70
2023/04/30 06:33:31;;;;;;;18.73;13.70;;;10.50;99.90;;;10.93;92.26;102236.28;5114046;28;20366;-70
2023/04/30 06:36:00;;;;;;;19.23;14.13;;;10.50;99.90;;;11.28;90.77;102229.75;5109640;28;20043;-71
2023/04/30 06:38:29;;;;;;;19.08;13.85;;;10.90;99.90;;;11.06;90.34;102243.53;5095371;28;20392;-70
2023/04/30 06:40:57;;;;;;;19.95;14.60;;;10.80;99.90;;;11.14;91.12;102241.91;5113463;28;20489;-70
2023/04/30 06:43:26;;;;;;;18.67;14.63;;;10.80;99.90;;;11.26;89.78;102246.50;5113839;28;20078;-70
2023/04/30 06:45:54;;;;;;;19.27;14.23;;;11.00;99.90;;;11.45;89.30;102244.13;5113221;28;20067;-69
2023/04/30 06:48:22;;;;;;;18.75;13.98;;;11.10;99.90;;;11.39;89.16;102244.03;5113338;28;20043;-69
2023/04/30 06:50:51;;;;;;;17.38;13.57;;;11.10;99.90;;;11.18;88.38;102237.53;5113214;28;20153;-69
2023/04/30 06:53:21;;;;;;;18.50;13.52;;;11.10;99.90;;;11.51;88.75;102253.94;5113100;28;20126;-69
2023/04/30 06:55:51;;;;;;;16.52;13.45;;;11.10;99.90;;;11.07;87.42;102126.16;5083146;28;20044;-69
2023/04/30 06:58:20;;;;;;;19.35;12.95;;;11.40;99.90;;;12.15;87.27;102242.41;5109282;28;20108;-69
2023/04/30 07:00:48;;;;;;;16.45;13.27;;;11.70;99.90;;;12.55;86.05;102244.59;5094274;28;20047;-69
2023/04/30 07:03:16;;;;;;;16.13;13.18;;;12.20;99.90;;;12.18;82.87;102227.41;5113232;28;20051;-69
2023/04/30 07:05:45;;;;;;;17.75;12.50;;;12.20;99.90;;;11.97;83.98;102231.56;5112813;28;20047;-68
2023/04/30 07:08:14;;;;;;;17.55;13.60;;;11.90;99.90;;;12.56;85.20;102243.72;5112656;28;20368;-69
2023/04/30 07:10:43;;;;;;;14.85;13.20;;;12.20;99.90;;;13.03;83.34;102262.69;5113422;28;20381;-69
2023/04/30 07:13:12;;;;;;;18.92;13.43;;;12.60;99.90;;;13.04;80.94;102267.19;5086962;28;20508;-69
2023/04/30 07:15:41;;;;;;;17.67;12.50;;;12.80;99.90;;;13.02;81.32;102272.47;5113396;28;20556;-68
2023/04/30 07:18:09;;;;;;;15.75;12.88;;;12.80;99.90;;;12.41;83.30;102263.03;5113320;28;20051;-69
2023/04/30 07:20:38;;;;;;;14.70;12.73;;;12.20;99.90;;;12.89;82.21;102265.25;5109383;28;20043;-69
2023/04/30 07:23:06;;;;;;;15.73;12.98;;;12.60;99.90;;;12.46;83.85;102265.75;5108983;28;20070;-69
2023/04/30 07:25:35;;;;;;;16.23;13.65;;;12.30;99.90;;;12.90;83.28;102272.34;5112824;28;20050;-69
2023/04/30 07:28:04;;;;;;;15.63;13.20;;;12.50;99.90;;;13.26;80.71;102270.00;5112914;28;20477;-69
2023/04/30 07:30:33;;;;;;;15.23;12.40;;;12.90;99.90;;;12.75;81.58;102269.56;5112942;28;20047;-69
2023/04/30 07:33:02;;;;;;;16.55;13.27;;;12.50;99.90;;;12.26;82.59;102260.22;5094443;28;20126;-69
2023/04/30 07:35:30;;;;;;;16.88;13.13;;;12.10;99.90;;;12.30;84.31;102255.81;5112267;28;20435;-69
2023/04/30 07:37:58;;;;;;;16.80;12.40;;;12.00;99.90;;;13.01;82.88;102262.69;5112393;28;20480;-69
2023/04/30 07:40:27;;;;;;;16.38;12.82;;;12.50;99.90;;;13.08;81.76;102274.31;5112045;28;20054;-69
2023/04/30 07:43:05;;;;;;;18.02;14.50;;;12.70;99.90;;;13.47;81.83;102277.25;5109014;28;20046;-69
2023/04/30 07:45:34;;;;;;;16.58;12.82;;;13.00;99.90;;;13.73;81.14;102269.41;5112143;28;20040;-69
2023/04/30 07:48:02;;;;;;;15.07;12.73;;;13.30;99.90;;;13.87;79.77;102273.03;5112791;28;20047;-69
2023/04/30 07:50:33;;;;;;;16.05;13.20;;;13.60;99.90;;;13.84;78.96;102263.25;5112730;28;20093;-66
2023/04/30 07:53:02;;;;;;;13.27;11.88;;;13.60;99.90;;;14.36;78.68;102265.25;5112395;28;20111;-68
2023/04/30 07:55:30;;;;;;;15.40;12.43;;;13.90;99.90;;;13.90;75.28;102162.19;5112400;28;20043;-68
2023/04/30 07:58:01;;;;;;;15.05;11.80;;;14.20;99.90;;;14.43;76.30;102272.38;5112824;28;20044;-67
2023/04/30 08:00:30;;;;;;;16.48;12.32;;;14.10;99.90;;;14.83;74.79;102275.97;5108485;28;20062;-65
2023/04/30 08:03:00;;;;;;;16.88;12.15;;;14.50;99.90;;;14.89;74.46;102280.41;5112212;28;20040;-65
2023/04/30 08:05:28;;;;;;;14.40;11.73;;;14.60;99.90;;;15.20;73.51;102279.53;5112177;28;20088;-65
2023/04/30 08:07:57;;;;;;;14.85;12.63;;;14.90;99.90;;;14.31;75.02;102258.13;5112420;28;20098;-64
2023/04/30 08:10:26;;;;;;;13.80;11.80;;;14.40;99.90;;;15.10;75.98;102286.66;5112610;28;20168;-70
2023/04/30 08:12:54;;;;;;;14.73;12.63;;;14.70;99.90;;;15.31;74.08;102269.78;5094041;28;20050;-72
2023/04/30 08:15:23;;;;;;;16.92;11.88;;;15.00;99.90;;;15.49;72.99;102276.84;5112140;28;20043;-76
2023/04/30 08:17:52;;;;;;;13.30;11.52;;;15.10;99.90;;;15.50;71.08;102274.22;5112245;28;20063;-77
2023/04/30 08:20:22;;;;;;;15.40;12.10;;;15.30;99.90;;;15.84;71.21;102274.97;5083969;28;20048;-77
2023/04/30 08:22:51;;;;;;;13.97;11.63;;;15.50;99.90;;;16.22;71.53;102273.03;5112395;28;20054;-78
2023/04/30 08:25:19;;;;;;;13.48;11.70;;;15.90;99.90;;;16.41;70.40;102231.09;5116505;28;20050;-77
2023/04/30 08:27:48;;;;;;;12.45;11.15;;;16.30;99.90;;;16.23;69.47;102277.50;5116236;28;20122;-76
2023/04/30 08:30:16;;;;;;;12.27;11.02;;;16.10;99.90;;;15.88;69.51;102255.41;5116631;28;20069;-75
2023/04/30 08:32:45;;;;;;;13.75;10.73;;;15.80;99.90;;;16.53;68.90;102280.00;5115936;28;20126;-77
2023/04/30 08:35:15;;;;;;;13.80;10.65;;;16.10;99.90;;;16.18;67.14;102284.66;5116371;28;20123;-76
2023/04/30 08:37:43;;;;;;;;;;;15.90;99.90;;;16.05;67.74;102286.47;5116369;28;20040;-77
2023/04/30 08:40:12;;;;;;;11.43;10.20;;;15.80;99.90;;;15.50;68.52;102262.66;5116030;28;19926;-73
2023/04/30 08:42:50;;;;;;;11.13;9.82;;;15.40;99.90;;;15.60;68.63;102277.75;5116223;28;20449;-77
2023/04/30 08:45:20;;;;;;;14.38;10.73;;;15.20;99.90;;;15.69;68.93;102275.94;5093333;28;20072;-76
2023/04/30 08:47:50;;;;;;;10.60;9.50;;;15.40;99.90;;;15.88;69.55;102276.75;5116090;28;20047;-69
2023/04/30 08:50:20;;;;;;;10.15;8.95;;;15.50;99.90;;;16.04;68.70;102283.81;5115664;28;20500;-72
2023/04/30 08:52:48;;;;;;;10.38;9.38;;;15.70;99.90;;;16.01;68.10;102283.81;5115691;28;20052;-72
2023/04/30 08:55:17;;;;;;;10.57;8.80;;;15.70;99.90;;;16.08;67.33;102272.22;5115934;28;20399;-73
2023/04/30 08:57:45;;;;;;;9.25;8.25;;;15.80;99.90;;;16.58;67.16;102274.66;5094377;28;20052;-72
2023/04/30 09:00:14;;;;;;;9.55;8.55;;;16.20;99.90;;;16.66;64.80;102275.50;5112358;28;20564;-74
2023/04/30 09:02:44;;;;;;;8.77;7.88;;;16.40;99.90;;;16.79;65.21;102278.06;5115602;28;20047;-72
2023/04/30 09:05:15;;;;;;;9.23;7.38;;;16.50;99.90;;;16.97;65.12;102277.94;5115583;28;20043;-72
2023/04/30 09:07:46;;;;;;;;;;;16.70;99.90;;;17.04;62.83;102285.00;5115660;28;20456;-72
2023/04/30 09:10:18;;;;;;;8.30;7.60;;;16.90;99.90;;;17.07;62.19;102271.59;5115808;28;20022;-75
2023/04/30 09:13:00;;;;;;;7.93;7.07;;;16.90;99.90;;;16.58;62.23;102283.56;5115742;28;20110;-81
2023/04/30 09:15:29;;;;;;;9.85;8.55;;;16.50;99.90;;;16.44;63.15;102269.34;5113084;28;20062;-73
2023/04/30 09:18:13;;;;;;;8.90;8.00;;;16.20;99.90;;;16.42;63.69;102275.59;5115063;28;20052;-76
2023/04/30 09:20:56;;;;;;;9.20;8.30;;;16.10;99.90;;;16.71;64.16;102273.66;5112385;28;20131;-79
2023/04/30 09:23:26;;;;;;;8.70;7.90;;;16.30;99.90;;;16.79;65.54;102278.06;5115395;28;20135;-78
2023/04/30 09:25:55;;;;;;;9.55;8.68;;;16.50;99.90;;;16.66;65.23;102271.03;5115158;28;20036;-78
2023/04/30 09:28:26;;;;;;;9.27;8.35;;;16.40;99.90;;;16.80;64.53;102271.81;5114922;28;20063;-80
2023/04/30 09:30:57;;;;;;;11.90;7.32;;;16.60;99.90;;;16.93;62.22;102267.28;5114576;28;20067;-79
2023/04/30 09:33:25;;;;;;;9.93;7.97;;;16.70;99.90;;;17.25;62.40;102275.03;5114999;28;20039;-81
2023/04/30 09:35:54;;;;;;;8.95;8.05;;;16.90;99.90;;;17.14;62.66;102267.09;5114947;28;20515;-81
2023/04/30 09:38:28;;;;;;;7.95;7.15;;;16.90;99.90;;;17.08;61.42;102267.13;5114873;28;20047;-81
2023/04/30 09:40:59;;;;;;;8.40;7.60;;;16.90;99.90;;;17.36;62.27;102270.44;5114770;28;20063;-81
2023/04/30 09:43:28;;;;;;;8.43;7.20;;;17.00;99.90;;;17.66;62.23;102273.72;5110996;28;20040;-82
2023/04/30 09:45:59;;;;;;;7.30;6.28;;;17.20;99.90;;;17.17;59.82;102288.44;5096167;28;20040;-82
2023/04/30 09:48:28;;;;;;;10.63;7.40;;;17.00;99.90;;;17.07;61.55;102274.25;5114979;28;20116;-83
2023/04/30 09:50:57;;;;;;;7.35;6.70;;;16.80;99.90;;;17.31;60.85;102274.94;5114417;28;20472;-75
2023/04/30 09:53:28;;;;;;;7.55;6.80;;;16.80;99.90;;;17.28;61.04;102257.16;5087905;28;20075;-78
2023/04/30 09:55:58;;;;;;;8.35;7.57;;;17.00;99.90;;;17.14;61.84;102265.31;5114845;28;20130;-71
2023/04/30 09:58:29;;;;;;;8.27;7.47;;;16.80;99.90;;;17.38;61.77;102257.94;5084161;28;20143;-72
2023/04/30 10:01:01;;;;;;;7.70;7.00;;;16.90;99.90;;;17.30;61.50;102258.03;5110477;28;20093;-84
2023/04/30 10:03:31;;;;;;;8.80;7.68;;;17.00;99.90;;;17.18;61.55;102260.81;5114412;28;20067;-84
2023/04/30 10:06:00;;;;;;;9.15;8.32;;;16.90;99.90;;;17.48;60.86;102259.63;5113850;28;20047;-84
2023/04/30 10:08:36;;;;;;;8.07;7.35;;;17.10;99.90;;;17.67;60.00;102246.03;5113962;28;20069;-85
2023/04/30 10:11:07;;;;;;;8.07;7.07;;;17.40;99.90;;;18.15;61.17;102247.25;5114113;28;20493;-82
2023/04/30 10:13:43;;;;;;;7.30;6.60;;;17.70;99.90;;;18.55;60.05;102251.16;5111117;28;20495;-86
2023/04/30 10:16:23;;;;;;;8.13;7.03;;;18.20;99.90;;;18.98;58.78;102251.34;5113772;28;20117;-80